Chatham, Michigan
Current Conditions -  °F | °C
As of 11:37 PM on Friday 24 Oct 2014 (Local Time) from KSAW Reporting Station
Broken Clouds Broken Clouds  
Wind Chill: 44°   Ceiling: 1700
Heat Index: 49°   Visibility: 10mi
Dew Point: 46°   Wind: 13mph
Humidity: 90%   Direction: 200°SSW
Pressure: 29.74"   Gusts: NA
Location:  46.35°N, 86.93°W
Report Text: KSAW 250337Z AUTO 20011KT 10SM BKN017 10/08 A2974 RMK AO2 T00950080
Loading
Personal Weather Stations






























Interactive Weather Map
Tropical Storm Tracking
New forecast layout! Learn more

10-Day Weather Forecast

Advertisements
Track Severe Weather on mobile